createdAt,value
2022-12-15T00:02:57.585Z,98760.63
2022-12-15T00:06:20.058Z,98769.62
2022-12-15T00:09:41.649Z,98779.50
2022-12-15T00:13:03.356Z,98778.38
2022-12-15T00:16:26.521Z,98780.94
2022-12-15T00:19:48.555Z,98786.25
2022-12-15T00:23:10.133Z,98776.44
2022-12-15T00:26:32.413Z,98788.31
2022-12-15T00:29:54.367Z,98781.69
2022-12-15T00:33:16.216Z,98769.94
2022-12-15T00:36:37.710Z,98774.63
2022-12-15T00:39:40.881Z,98780.59
2022-12-15T00:42:43.796Z,98789.81
2022-12-15T00:46:05.637Z,98807.56
2022-12-15T00:49:28.880Z,98792.69
2022-12-15T00:52:50.671Z,98802.06
2022-12-15T00:56:12.105Z,98810.31
2022-12-15T00:59:35.130Z,98788.87
2022-12-15T01:02:56.864Z,98796.97
2022-12-15T01:06:18.615Z,98812.19
2022-12-15T01:09:39.826Z,98824.22
2022-12-15T01:13:02.218Z,98820.00
2022-12-15T01:16:30.285Z,98813.69
2022-12-15T01:19:52.120Z,98804.91
2022-12-15T01:22:56.239Z,98802.25
2022-12-15T01:25:59.484Z,98805.69
2022-12-15T01:29:02.414Z,98806.03
2022-12-15T01:32:06.018Z,98791.72
2022-12-15T01:35:09.260Z,98791.72
2022-12-15T01:38:12.567Z,98776.97
2022-12-15T01:41:15.618Z,98791.72
2022-12-15T01:44:22.004Z,98779.63
2022-12-15T01:47:25.792Z,98774.78
2022-12-15T01:50:32.159Z,98788.03
2022-12-15T01:53:40.173Z,98801.09
2022-12-15T01:56:46.964Z,98779.63
2022-12-15T01:59:53.115Z,98788.44
2022-12-15T02:02:57.162Z,98792.19
2022-12-15T02:06:01.358Z,98793.53
2022-12-15T02:09:04.765Z,98787.44
2022-12-15T02:12:29.509Z,98795.38
2022-12-15T02:15:42.017Z,98800.53
2022-12-15T02:19:03.794Z,98797.06
2022-12-15T02:22:38.734Z,98802.19
2022-12-15T02:25:45.113Z,98792.31
2022-12-15T02:29:05.769Z,98786.66
2022-12-15T02:32:15.332Z,98794.78
2022-12-15T02:35:44.531Z,98795.56
2022-12-15T02:38:47.904Z,98798.69
2022-12-15T02:41:53.029Z,98814.50
2022-12-15T02:45:09.680Z,98823.59
2022-12-15T02:48:23.898Z,98823.28
2022-12-15T02:51:48.144Z,98826.59
2022-12-15T02:55:14.176Z,98827.37
2022-12-15T02:58:20.245Z,98820.59
2022-12-15T03:01:37.132Z,98836.53
2022-12-15T03:04:44.261Z,98843.28
2022-12-15T03:07:50.280Z,98845.50
2022-12-15T03:10:55.906Z,98848.31
2022-12-15T03:13:59.032Z,98837.31
2022-12-15T03:17:04.300Z,98834.66
2022-12-15T03:20:09.189Z,98833.56
2022-12-15T03:23:13.692Z,98836.34
2022-12-15T03:26:16.598Z,98840.56
2022-12-15T03:29:20.054Z,98843.34
2022-12-15T03:32:22.976Z,98838.03
2022-12-15T03:35:26.198Z,98853.72
2022-12-15T03:38:29.146Z,98860.94
2022-12-15T03:41:32.364Z,98865.16
2022-12-15T03:44:35.430Z,98879.53
2022-12-15T03:47:42.024Z,98889.44
2022-12-15T03:50:44.935Z,98885.19
2022-12-15T03:53:49.427Z,98911.22
2022-12-15T03:56:52.347Z,98907.28
2022-12-15T03:59:55.654Z,98908.41
2022-12-15T04:02:58.643Z,98893.78
2022-12-15T04:06:02.302Z,98881.69
2022-12-15T04:09:05.417Z,98888.50
2022-12-15T04:12:11.239Z,98896.44
2022-12-15T04:15:14.355Z,98893.81
2022-12-15T04:18:17.630Z,98892.59
2022-12-15T04:21:20.495Z,98884.47
2022-12-15T04:24:42.538Z,98876.47
2022-12-15T04:28:04.605Z,98880.50
2022-12-15T04:31:32.251Z,98887.84
2022-12-15T04:34:54.253Z,98895.53
2022-12-15T04:38:16.018Z,98893.78
2022-12-15T04:41:38.468Z,98905.69
2022-12-15T04:45:01.074Z,98907.34
2022-12-15T04:48:23.335Z,98924.59
2022-12-15T04:51:45.144Z,98944.03
2022-12-15T04:55:06.725Z,98945.16
2022-12-15T04:58:30.066Z,98948.59
2022-12-15T05:01:52.633Z,98950.81
2022-12-15T05:05:14.445Z,98958.38
2022-12-15T05:08:36.459Z,98964.34
2022-12-15T05:12:08.067Z,98970.91
2022-12-15T05:15:29.438Z,98975.31
2022-12-15T05:18:51.431Z,98974.81
2022-12-15T05:22:13.090Z,98960.38
2022-12-15T05:25:35.645Z,98965.19
2022-12-15T05:28:58.022Z,98983.59
2022-12-15T05:32:01.244Z,98983.31
2022-12-15T05:35:05.686Z,98987.56
2022-12-15T05:38:08.972Z,98982.06
2022-12-15T05:41:11.835Z,98982.38
2022-12-15T05:44:15.304Z,98987.03
2022-12-15T05:47:18.196Z,98975.00
2022-12-15T05:50:22.185Z,98996.47
2022-12-15T05:53:25.352Z,99000.97
2022-12-15T05:56:29.376Z,98991.56
2022-12-15T05:59:32.254Z,98998.91
2022-12-15T06:02:35.526Z,99014.28
2022-12-15T06:05:39.799Z,99034.66
2022-12-15T06:08:43.530Z,99036.03
2022-12-15T06:11:46.841Z,99057.22
2022-12-15T06:14:49.801Z,99053.91
2022-12-15T06:17:57.198Z,99060.09
2022-12-15T06:21:02.956Z,99044.53
2022-12-15T06:24:07.024Z,99050.97
2022-12-15T06:27:10.136Z,99067.00
2022-12-15T06:30:14.081Z,99071.84
2022-12-15T06:33:17.561Z,99066.84
2022-12-15T06:36:21.002Z,99060.72
2022-12-15T06:39:23.952Z,99051.75
2022-12-15T06:42:27.177Z,99050.19
2022-12-15T06:45:30.087Z,99055.69
2022-12-15T06:48:33.427Z,99071.81
2022-12-15T06:51:37.305Z,99085.00
2022-12-15T06:54:40.418Z,99087.03
2022-12-15T06:57:43.278Z,99103.50
2022-12-15T07:00:46.733Z,99115.69
2022-12-15T07:03:51.075Z,99112.38
2022-12-15T07:06:54.532Z,99108.25
2022-12-15T07:09:57.941Z,99115.13
2022-12-15T07:13:01.124Z,99094.59
2022-12-15T07:16:06.437Z,99123.38
2022-12-15T07:19:13.302Z,99134.63
2022-12-15T07:22:16.199Z,99123.31
2022-12-15T07:25:19.971Z,99104.84
2022-12-15T07:28:25.892Z,99087.19
2022-12-15T07:31:48.153Z,99093.00
2022-12-15T07:34:52.098Z,99128.91
2022-12-15T07:37:55.407Z,99158.81
2022-12-15T07:41:04.083Z,99160.50
2022-12-15T07:44:07.990Z,99135.22
2022-12-15T07:47:12.046Z,99147.87
2022-12-15T07:50:16.167Z,99160.63
2022-12-15T07:53:22.108Z,99172.69
2022-12-15T07:56:26.592Z,99171.34
2022-12-15T07:59:29.521Z,99190.12
2022-12-15T08:02:34.325Z,99176.59
2022-12-15T08:05:38.939Z,99162.87
2022-12-15T08:08:42.089Z,99151.91
2022-12-15T08:11:45.444Z,99163.06
2022-12-15T08:14:50.283Z,99142.38
2022-12-15T08:17:53.481Z,99153.78
2022-12-15T08:20:56.723Z,99173.62
2022-12-15T08:24:01.086Z,99189.84
2022-12-15T08:27:04.358Z,99210.13
2022-12-15T08:30:08.105Z,99199.81
2022-12-15T08:33:11.455Z,99211.16
2022-12-15T08:36:16.271Z,99206.59
2022-12-15T08:39:19.161Z,99206.72
2022-12-15T08:42:22.305Z,99207.41
2022-12-15T08:45:26.213Z,99218.94
2022-12-15T08:48:31.161Z,99215.25
2022-12-15T08:51:34.140Z,99228.16
2022-12-15T08:54:38.639Z,99227.00
2022-12-15T08:57:41.660Z,99221.66
2022-12-15T09:00:44.884Z,99234.47
2022-12-15T09:03:47.887Z,99237.16
2022-12-15T09:06:51.300Z,99234.50
2022-12-15T09:09:54.462Z,99236.22
2022-12-15T09:12:57.818Z,99241.94
2022-12-15T09:16:10.298Z,99244.53
2022-12-15T09:19:14.302Z,99245.38
2022-12-15T09:22:17.701Z,99245.13
2022-12-15T09:25:21.048Z,99250.41
2022-12-15T09:28:23.988Z,99258.81
2022-12-15T09:31:33.394Z,99261.66
2022-12-15T09:34:36.793Z,99236.75
2022-12-15T09:37:40.086Z,99242.84
2022-12-15T09:40:43.018Z,99249.00
2022-12-15T09:44:00.595Z,99248.84
2022-12-15T09:47:18.609Z,99240.31
2022-12-15T09:50:26.779Z,99233.38
2022-12-15T09:53:54.153Z,99237.94
2022-12-15T09:56:57.305Z,99236.28
2022-12-15T10:00:00.127Z,99224.09
2022-12-15T10:03:22.691Z,99209.84
2022-12-15T10:06:33.505Z,99219.09
2022-12-15T10:09:38.533Z,99222.03
2022-12-15T10:12:53.144Z,99219.50
2022-12-15T10:16:04.735Z,99211.16
2022-12-15T10:19:13.556Z,99211.00
2022-12-15T10:22:24.786Z,99228.97
2022-12-15T10:25:31.039Z,99228.44
2022-12-15T10:28:51.336Z,99236.63
2022-12-15T10:31:58.292Z,99234.53
2022-12-15T10:35:01.476Z,99239.31
2022-12-15T10:38:09.498Z,99234.97
2022-12-15T10:41:19.808Z,99229.34
2022-12-15T10:44:32.108Z,99237.19
2022-12-15T10:47:35.266Z,99239.56
2022-12-15T10:50:39.365Z,99237.88
2022-12-15T10:53:50.444Z,99227.50
2022-12-15T10:56:59.181Z,99228.47
2022-12-15T11:00:15.622Z,99218.00
2022-12-15T11:03:26.435Z,99228.94
2022-12-15T11:06:32.610Z,99232.38
2022-12-15T11:09:38.440Z,99229.44
2022-12-15T11:12:58.315Z,99223.22
2022-12-15T11:16:14.597Z,99233.25
2022-12-15T11:19:30.871Z,99231.34
2022-12-15T11:22:44.699Z,99227.78
2022-12-15T11:26:11.856Z,99243.12
2022-12-15T11:29:42.110Z,99262.66
2022-12-15T11:32:48.906Z,99262.22
2022-12-15T11:36:10.073Z,99254.28
2022-12-15T11:39:34.626Z,99261.91
2022-12-15T11:42:53.003Z,99249.56
2022-12-15T11:46:15.021Z,99251.66
2022-12-15T11:49:26.997Z,99266.12
2022-12-15T11:53:24.535Z,99276.97
2022-12-15T11:56:41.530Z,99276.06
2022-12-15T11:59:52.028Z,99269.66
2022-12-15T12:03:09.349Z,99266.78
2022-12-15T12:06:17.413Z,99246.78
2022-12-15T12:09:33.336Z,99240.59
2022-12-15T12:12:36.432Z,99251.72
2022-12-15T12:15:46.050Z,99248.63
2022-12-15T12:19:04.701Z,99256.72
2022-12-15T12:22:27.887Z,99247.81
2022-12-15T12:25:37.933Z,99259.75
2022-12-15T12:28:48.663Z,99266.84
2022-12-15T12:32:18.619Z,99275.81
2022-12-15T12:35:47.568Z,99264.50
2022-12-15T12:38:56.263Z,99265.69
2022-12-15T12:42:37.243Z,99259.97
2022-12-15T12:45:47.539Z,99250.91
2022-12-15T12:49:03.830Z,99246.59
2022-12-15T12:52:25.711Z,99236.97
2022-12-15T12:55:44.195Z,99238.81
2022-12-15T12:58:48.681Z,99245.22
2022-12-15T13:01:51.807Z,99255.06
2022-12-15T13:04:58.827Z,99250.25
2022-12-15T13:08:08.151Z,99258.72
2022-12-15T13:11:48.906Z,99259.19
2022-12-15T13:15:19.814Z,99259.94
2022-12-15T13:18:25.076Z,99255.16
2022-12-15T13:21:43.402Z,99249.47
2022-12-15T13:24:50.505Z,99250.50
2022-12-15T13:27:57.927Z,99240.00
2022-12-15T13:31:22.625Z,99250.72
2022-12-15T13:34:27.195Z,99252.28
2022-12-15T13:37:53.545Z,99267.56
2022-12-15T13:40:56.427Z,99262.78
2022-12-15T13:44:00.759Z,99260.66
2022-12-15T13:47:10.539Z,99264.06
2022-12-15T13:50:18.596Z,99269.56
2022-12-15T13:53:23.773Z,99264.06
2022-12-15T13:56:53.284Z,99272.47
2022-12-15T14:00:05.253Z,99269.97
2022-12-15T14:03:14.903Z,99264.41
2022-12-15T14:06:18.059Z,99264.63
2022-12-15T14:09:24.793Z,99263.38
2022-12-15T14:12:28.121Z,99267.97
2022-12-15T14:15:32.530Z,99278.78
2022-12-15T14:18:39.135Z,99275.78
2022-12-15T14:21:58.885Z,99272.97
2022-12-15T14:25:14.610Z,99273.62
2022-12-15T14:28:32.558Z,99268.25
2022-12-15T14:31:37.592Z,99272.94
2022-12-15T14:34:42.009Z,99270.03
2022-12-15T14:37:45.882Z,99274.12
2022-12-15T14:40:49.967Z,99263.44
2022-12-15T14:47:34.356Z,99260.44
2022-12-15T14:50:37.717Z,99258.09
2022-12-15T14:53:42.340Z,99263.59
2022-12-15T14:56:45.503Z,99263.91
2022-12-15T14:59:48.939Z,99265.69
2022-12-15T15:03:16.173Z,99256.34
2022-12-15T15:03:18.471Z,99275.03
2022-12-15T15:06:25.156Z,99273.84
2022-12-15T15:09:41.900Z,99276.56
2022-12-15T15:12:45.757Z,99272.78
2022-12-15T15:15:57.785Z,99263.84
2022-12-15T15:19:02.606Z,99255.19
2022-12-15T15:22:05.872Z,99264.91
2022-12-15T15:25:31.628Z,99256.88
2022-12-15T15:28:44.841Z,99254.41
2022-12-15T15:31:47.848Z,99236.06
2022-12-15T15:34:52.295Z,99244.94
2022-12-15T15:37:59.852Z,99228.03
2022-12-15T15:41:17.611Z,99230.59
2022-12-15T15:44:20.433Z,99215.53
2022-12-15T15:47:27.365Z,99226.81
2022-12-15T15:50:30.455Z,99226.88
2022-12-15T15:53:34.812Z,99234.53
2022-12-15T15:56:37.699Z,99230.78
2022-12-15T15:59:42.530Z,99221.75
2022-12-15T16:02:45.542Z,99221.09
2022-12-15T16:05:48.862Z,99220.16
2022-12-15T16:08:53.980Z,99227.41
2022-12-15T16:11:58.494Z,99210.91
2022-12-15T16:15:01.261Z,99221.34
2022-12-15T16:18:05.834Z,99217.03
2022-12-15T16:21:10.863Z,99252.72
2022-12-15T16:24:16.978Z,99270.31
2022-12-15T16:27:19.926Z,99269.97
2022-12-15T16:30:25.860Z,99255.97
2022-12-15T16:33:28.837Z,99257.84
2022-12-15T16:36:32.876Z,99261.50
2022-12-15T16:39:35.905Z,99268.09
2022-12-15T16:42:39.221Z,99269.72
2022-12-15T16:45:45.288Z,99260.94
2022-12-15T16:48:48.771Z,99250.56
2022-12-15T16:51:53.795Z,99264.53
2022-12-15T16:54:57.414Z,99254.63
2022-12-15T16:58:03.310Z,99268.94
2022-12-15T17:01:06.598Z,99276.00
2022-12-15T17:04:09.655Z,99269.87
2022-12-15T17:07:19.712Z,99280.88
2022-12-15T17:10:26.610Z,99293.13
2022-12-15T17:13:45.416Z,99290.81
2022-12-15T17:16:48.907Z,99276.31
2022-12-15T17:20:27.281Z,99273.47
2022-12-15T17:23:21.309Z,99286.75
2022-12-15T17:26:30.165Z,99278.88
2022-12-15T17:29:33.951Z,99280.88
2022-12-15T17:32:37.451Z,99270.78
2022-12-15T17:35:40.579Z,99286.69
2022-12-15T17:38:43.890Z,99289.03
2022-12-15T17:42:04.804Z,99291.72
2022-12-15T17:45:21.067Z,99291.41
2022-12-15T17:48:25.027Z,99299.84
2022-12-15T17:51:29.600Z,99291.06
2022-12-15T17:54:34.967Z,99278.94
2022-12-15T17:57:38.614Z,99264.91
2022-12-15T18:00:48.900Z,99258.91
2022-12-15T18:03:55.946Z,99252.13
2022-12-15T18:07:02.113Z,99254.06
2022-12-15T18:10:26.322Z,99274.81
2022-12-15T18:13:35.579Z,99272.56
2022-12-15T18:16:39.383Z,99262.69
2022-12-15T18:19:42.461Z,99258.25
2022-12-15T18:22:46.885Z,99266.97
2022-12-15T18:25:50.780Z,99266.22
2022-12-15T18:28:55.443Z,99266.97
2022-12-15T18:31:58.936Z,99260.28
2022-12-15T18:35:03.125Z,99273.09
2022-12-15T18:38:24.954Z,99279.69
2022-12-15T18:41:34.886Z,99280.81
2022-12-15T18:44:47.627Z,99275.91
2022-12-15T18:47:53.213Z,99267.13
2022-12-15T18:51:04.498Z,99253.69
2022-12-15T18:54:17.155Z,99239.81
2022-12-15T18:57:34.154Z,99238.09
2022-12-15T19:00:40.036Z,99232.69
2022-12-15T19:03:44.323Z,99234.38
2022-12-15T19:06:48.085Z,99230.47
2022-12-15T19:09:52.432Z,99240.97
2022-12-15T19:12:58.669Z,99240.84
2022-12-15T19:16:03.742Z,99231.63
2022-12-15T19:19:29.074Z,99212.72
2022-12-15T19:22:32.929Z,99198.56
2022-12-15T19:25:37.191Z,99170.72
2022-12-15T19:28:40.797Z,99171.78
2022-12-15T19:31:45.230Z,99175.25
2022-12-15T19:34:48.918Z,99199.31
2022-12-15T19:37:55.365Z,99202.63
2022-12-15T19:40:59.968Z,99204.78
2022-12-15T19:44:04.242Z,99199.50
2022-12-15T19:47:14.819Z,99188.59
2022-12-15T19:50:31.734Z,99193.09
2022-12-15T19:53:36.727Z,99189.00
2022-12-15T19:56:42.642Z,99171.28
2022-12-15T19:59:47.054Z,99172.88
2022-12-15T20:02:52.241Z,99174.81
2022-12-15T20:05:57.026Z,99177.97
2022-12-15T20:09:00.780Z,99152.12
2022-12-15T20:12:06.014Z,99143.53
2022-12-15T20:15:19.415Z,99136.41
2022-12-15T20:18:24.299Z,99124.75
2022-12-15T20:21:32.759Z,99128.59
2022-12-15T20:24:36.855Z,99133.03
2022-12-15T20:27:41.136Z,99133.94
2022-12-15T20:30:47.968Z,99124.91
2022-12-15T20:33:57.292Z,99149.59
2022-12-15T20:37:01.272Z,99141.97
2022-12-15T20:40:15.869Z,99137.97
2022-12-15T20:43:20.963Z,99141.34
2022-12-15T20:46:30.607Z,99123.94
2022-12-15T20:49:34.500Z,99131.09
2022-12-15T20:52:37.754Z,99137.66
2022-12-15T20:55:41.493Z,99130.16
2022-12-15T20:58:46.282Z,99136.03
2022-12-15T21:01:51.064Z,99131.38
2022-12-15T21:04:55.768Z,99133.63
2022-12-15T21:08:00.672Z,99118.59
2022-12-15T21:11:27.595Z,99098.66
2022-12-15T21:14:31.150Z,99087.81
2022-12-15T21:17:37.436Z,99095.59
2022-12-15T21:20:51.730Z,99101.81
2022-12-15T21:23:56.158Z,99105.62
2022-12-15T21:27:02.394Z,99104.78
2022-12-15T21:30:14.909Z,99105.34
2022-12-15T21:33:18.308Z,99102.00
2022-12-15T21:36:21.839Z,99092.66
2022-12-15T21:39:31.173Z,99084.97
2022-12-15T21:42:35.761Z,99090.31
2022-12-15T21:45:39.073Z,99093.41
2022-12-15T21:49:01.036Z,99108.03
2022-12-15T21:52:04.529Z,99119.50
2022-12-15T21:55:18.116Z,99101.91
2022-12-15T21:58:24.516Z,99092.91
2022-12-15T22:01:31.014Z,99087.88
2022-12-15T22:04:35.388Z,99081.94
2022-12-15T22:07:39.798Z,99070.41
2022-12-15T22:10:43.209Z,99065.38
2022-12-15T22:13:46.182Z,99052.22
2022-12-15T22:16:49.412Z,99063.59
2022-12-15T22:19:53.171Z,99072.16
2022-12-15T22:22:56.668Z,99071.37
2022-12-15T22:25:59.810Z,99075.06
2022-12-15T22:29:09.255Z,99053.38
2022-12-15T22:32:14.377Z,99043.56
2022-12-15T22:35:20.440Z,99037.88
2022-12-15T22:38:23.787Z,99021.41
2022-12-15T22:41:27.012Z,99031.00
2022-12-15T22:44:36.077Z,99026.97
2022-12-15T22:47:39.332Z,99028.47
2022-12-15T22:50:42.301Z,99023.53
2022-12-15T22:53:45.616Z,99015.31
2022-12-15T22:57:06.073Z,99011.41
2022-12-15T23:00:11.257Z,99004.59
2022-12-15T23:03:14.131Z,98998.03
2022-12-15T23:06:17.422Z,98985.22
2022-12-15T23:09:20.357Z,98988.09
2022-12-15T23:12:23.567Z,98982.75
2022-12-15T23:15:46.602Z,98983.88
2022-12-15T23:18:52.990Z,98990.34
2022-12-15T23:21:57.617Z,98994.56
2022-12-15T23:25:02.201Z,98990.56
2022-12-15T23:28:05.560Z,98986.44
2022-12-15T23:31:09.093Z,98979.44
2022-12-15T23:34:12.629Z,98984.00
2022-12-15T23:37:16.440Z,98979.53
2022-12-15T23:40:22.275Z,98970.72
2022-12-15T23:43:27.471Z,98964.81
2022-12-15T23:46:30.341Z,98964.34
2022-12-15T23:49:33.556Z,98961.34
2022-12-15T23:52:37.164Z,98947.31
2022-12-15T23:55:40.487Z,98953.53
2022-12-15T23:58:45.118Z,98945.41
